Time;durP1;ratioP1;P1;durP2;ratioP2;P2;SDS_P1;SDS_P2;PMS_P1;PMS_P2;Temp;Humidity;BMP_temperature;BMP_pressure;BME280_temperature;BME280_humidity;BME280_pressure;Samples;Min_cycle;Max_cycle;Signal;HPM_P1;HPM_P2
2024/02/02 00:01:09;;;;;;;23.03;5.03;;;;;;;4.03;100.00;102914.06;5045277;28;20179;-79
2024/02/02 00:03:35;;;;;;;25.13;4.97;;;;;;;3.95;100.00;102929.66;5032263;28;20183;-79
2024/02/02 00:06:00;;;;;;;21.10;5.07;;;;;;;2.30;100.00;102608.34;5033078;28;20179;-79
2024/02/02 00:08:26;;;;;;;19.03;4.17;;;;;;;4.00;100.00;102927.56;5045937;28;20376;-79
2024/02/02 00:10:52;;;;;;;25.30;5.03;;;;;;;3.50;100.00;102839.78;5045826;28;20179;-79
2024/02/02 00:13:17;;;;;;;24.53;5.10;;;;;;;3.34;100.00;102847.91;5028960;28;20192;-79
2024/02/02 00:15:43;;;;;;;33.03;5.90;;;;;;;2.80;100.00;102677.44;5030180;28;20216;-78
2024/02/02 00:18:08;;;;;;;24.87;4.97;;;;;;;3.39;100.00;102771.53;5034632;28;20195;-79
2024/02/02 00:20:34;;;;;;;26.73;6.20;;;;;;;4.04;100.00;102903.31;5030567;28;20237;-79
2024/02/02 00:22:59;;;;;;;30.73;6.50;;;;;;;2.56;100.00;102653.44;5029796;28;20192;-78
2024/02/02 00:25:25;;;;;;;26.80;5.17;;;;;;;2.26;100.00;102586.53;5030155;28;20184;-78
2024/02/02 00:27:51;;;;;;;18.53;6.30;;;;;;;4.42;100.00;102890.97;5047394;28;20211;-79
2024/02/02 00:30:17;;;;;;;32.77;5.30;;;;;;;3.72;100.00;102820.56;5028014;28;20477;-79
2024/02/02 00:32:44;;;;;;;29.67;5.73;;;;;;;5.52;100.00;103114.50;5045468;28;20179;-79
2024/02/02 00:35:13;;;;;;;19.73;5.30;;;;;;;3.51;100.00;102767.19;5050364;28;20442;-79
2024/02/02 00:37:39;;;;;;;27.77;6.27;;;;;;;2.09;100.00;102457.09;5031248;28;20521;-79
2024/02/02 00:40:09;;;;;;;20.43;4.57;;;;;;;2.57;100.00;102580.97;5044056;28;20439;-78
2024/02/02 00:42:35;;;;;;;25.60;5.20;;;;;;;2.23;100.00;102485.28;5027945;28;20437;-79
2024/02/02 00:45:00;;;;;;;18.50;5.33;;;;;;;4.35;100.00;102890.56;5033847;28;22019;-79
2024/02/02 00:47:26;;;;;;;24.20;5.23;;;;;;;2.14;100.00;102480.59;5030742;28;20489;-78
2024/02/02 00:49:51;;;;;;;27.07;5.07;;;;;;;3.88;100.00;102738.09;5045978;28;20226;-79
2024/02/02 00:52:17;;;;;;;25.27;6.70;;;;;;;3.52;100.00;102660.09;5047513;28;20674;-78
2024/02/02 00:54:42;;;;;;;21.47;6.13;;;;;;;4.08;100.00;102736.66;5041619;28;20258;-79
2024/02/02 00:57:08;;;;;;;22.07;4.07;;;;;;;3.85;100.00;102688.72;5045904;28;20184;-79
2024/02/02 00:59:34;;;;;;;22.83;4.90;;;;;;;3.63;100.00;102641.59;5029652;28;20183;-78
2024/02/02 01:01:59;;;;;;;21.10;5.67;;;;;;;1.68;100.00;102330.22;5043496;28;20238;-79
2024/02/02 01:04:24;;;;;;;22.60;5.33;;;;;;;3.49;100.00;102709.88;5051194;28;20726;-79
2024/02/02 01:06:50;;;;;;;21.73;5.23;;;;;;;4.21;100.00;102753.41;5033872;28;20194;-79
2024/02/02 01:09:16;;;;;;;23.17;4.57;;;;;;;3.56;100.00;102634.19;5044375;28;20747;-78
2024/02/02 01:11:41;;;;;;;21.73;4.40;;;;;;;2.54;100.00;102431.03;5044921;28;20180;-78
2024/02/02 01:14:07;;;;;;;24.77;5.60;;;;;;;2.44;100.00;102392.91;5052491;28;20654;-79
2024/02/02 01:16:32;;;;;;;28.63;5.30;;;;;;;2.64;100.00;102425.94;5049377;28;20245;-79
2024/02/02 01:18:58;;;;;;;20.00;4.20;;;;;;;3.14;100.00;102462.09;5053344;28;20615;-79
2024/02/02 01:21:23;;;;;;;19.50;4.63;;;;;;;4.21;100.00;102713.56;5049951;28;20213;-79
2024/02/02 01:23:49;;;;;;;29.53;5.30;;;;;;;3.12;100.00;102476.41;5028970;28;20187;-79
2024/02/02 01:26:14;;;;;;;24.77;5.20;;;;;;;4.65;100.00;102725.38;5051004;28;20192;-79
2024/02/02 01:28:39;;;;;;;21.80;4.67;;;;;;;4.65;100.00;102695.31;5049885;28;20211;-79
2024/02/02 01:31:05;;;;;;;19.07;4.17;;;;;;;3.94;100.00;102564.22;5034382;28;20266;-79
2024/02/02 01:33:31;;;;;;;17.03;4.73;;;;;;;3.03;100.00;102442.59;5033847;28;20179;-79
2024/02/02 01:35:56;;;;;;;20.37;5.00;;;;;;;2.64;100.00;102334.06;5034303;28;20203;-78
2024/02/02 01:38:22;;;;;;;28.03;5.10;;;;;;;3.21;100.00;102382.09;5052096;28;20203;-78
2024/02/02 01:40:48;;;;;;;16.00;4.70;;;;;;;4.50;100.00;102674.22;5048768;28;20184;-78
2024/02/02 01:43:13;;;;;;;21.40;4.57;;;;;;;4.17;100.00;102558.06;5030657;28;20611;-79
2024/02/02 01:45:39;;;;;;;24.00;4.90;;;;;;;3.73;100.00;102503.81;5050840;28;20442;-78
2024/02/02 01:48:07;;;;;;;20.60;6.10;;;;;;;3.53;100.00;102452.19;5047312;28;20239;-79
2024/02/02 01:50:32;;;;;;;21.07;6.53;;;;;;;3.58;100.00;102471.25;5036204;28;20180;-79
2024/02/02 01:52:58;;;;;;;16.87;4.20;;;;;;;4.55;100.00;102665.06;5033252;28;20907;-78
2024/02/02 01:55:23;;;;;;;25.90;6.07;;;;;;;3.07;100.00;102405.16;5033257;28;20274;-78
2024/02/02 01:57:49;;;;;;;16.53;4.40;;;;;;;2.89;100.00;102314.59;5048549;28;20191;-79
2024/02/02 02:00:16;;;;;;;20.33;5.10;;;;;;;3.69;100.00;102432.47;5047203;28;20190;-78
2024/02/02 02:02:41;;;;;;;27.73;6.43;;;;;;;3.00;100.00;102331.50;5048857;28;20176;-78
2024/02/02 02:05:07;;;;;;;19.37;6.30;;;;;;;4.08;100.00;102521.56;5046685;28;20475;-78
2024/02/02 02:07:33;;;;;;;17.20;5.70;;;;;;;2.58;100.00;102259.50;5033664;28;20295;-79
2024/02/02 02:09:58;;;;;;;23.00;5.30;;;;;;;1.89;100.00;102126.81;5046915;28;20466;-79
2024/02/02 02:12:24;;;;;;;25.63;5.30;;;;;;;3.22;100.00;102389.94;5037122;28;20237;-81
2024/02/02 02:14:49;;;;;;;23.20;5.63;;;;;;;3.47;100.00;102396.94;5045686;28;20183;-81
2024/02/02 02:17:15;;;;;;;21.73;4.83;;;;;;;4.15;100.00;102504.19;5050077;28;20194;-80
2024/02/02 02:19:41;;;;;;;25.00;7.53;;;;;;;3.51;100.00;102366.56;5047271;28;20180;-81
2024/02/02 02:22:06;;;;;;;24.90;5.23;;;;;;;4.58;100.00;102551.41;5030410;28;20275;-81
2024/02/02 02:24:32;;;;;;;22.03;5.60;;;;;;;2.69;100.00;102217.13;5032772;28;20188;-81
2024/02/02 02:26:58;;;;;;;23.50;5.70;;;;;;;4.82;100.00;102526.53;5035593;28;20306;-81
2024/02/02 02:29:23;;;;;;;23.10;5.80;;;;;;;4.38;100.00;102446.66;5031649;28;20187;-81
2024/02/02 02:31:53;;;;;;;22.47;6.30;;;;;;;4.58;100.00;102450.41;5030617;28;20457;-81
2024/02/02 02:34:18;;;;;;;22.07;5.47;;;;;;;3.95;100.00;102324.31;5029261;28;20188;-81
2024/02/02 02:36:44;;;;;;;20.60;5.60;;;;;;;3.92;100.00;102267.00;5030282;28;20492;-81
2024/02/02 02:39:11;;;;;;;25.83;5.50;;;;;;;3.88;100.00;102246.97;5044296;28;20692;-81
2024/02/02 02:41:36;;;;;;;19.23;5.33;;;;;;;5.79;100.00;102672.28;5030838;28;20183;-82
2024/02/02 02:44:02;;;;;;;16.87;6.20;;;;;;;4.56;100.00;102425.75;5032102;28;20426;-81
2024/02/02 02:46:27;;;;;;;27.13;5.50;;;;;;;3.11;100.00;102189.22;5033491;28;20206;-80
2024/02/02 02:48:53;;;;;;;17.13;4.60;;;;;;;3.91;100.00;102333.50;5050515;28;20203;-81
2024/02/02 02:51:18;;;;;;;18.73;6.00;;;;;;;4.56;100.00;102403.66;5051350;28;20171;-80
2024/02/02 02:53:44;;;;;;;18.43;5.03;;;;;;;2.50;100.00;102087.88;5032515;28;20284;-81
2024/02/02 02:56:09;;;;;;;18.60;5.00;;;;;;;3.51;100.00;102187.97;5031754;28;20176;-81
2024/02/02 02:58:35;;;;;;;25.67;6.60;;;;;;;3.38;100.00;102156.22;5035220;28;20237;-81
2024/02/02 03:01:01;;;;;;;22.03;6.03;;;;;;;2.69;100.00;102026.38;5052746;28;20199;-81
2024/02/02 03:03:26;;;;;;;20.57;5.83;;;;;;;4.72;100.00;102415.63;5051815;28;20258;-81
2024/02/02 03:05:52;;;;;;;17.13;5.40;;;;;;;2.48;100.00;102063.31;5053120;28;20461;-81
2024/02/02 03:08:17;;;;;;;19.63;5.47;;;;;;;4.84;100.00;102434.22;5035590;28;20578;-80
2024/02/02 03:10:43;;;;;;;27.17;5.33;;;;;;;2.41;100.00;102004.69;5035563;28;20191;-81
2024/02/02 03:13:08;;;;;;;22.40;5.60;;;;;;;3.59;100.00;102201.50;5045383;28;20663;-80
2024/02/02 03:15:34;;;;;;;18.47;5.30;;;;;;;3.35;100.00;102170.56;5047779;28;20195;-80
2024/02/02 03:18:00;;;;;;;19.40;6.13;;;;;;;6.03;100.00;102610.88;5044456;28;20203;-81
2024/02/02 03:20:26;;;;;;;24.70;6.33;;;;;;;3.70;100.00;102124.50;5026491;28;20225;-81
2024/02/02 03:22:53;;;;;;;20.80;5.93;;;;;;;2.92;100.00;102003.41;5026332;28;20529;-81
2024/02/02 03:25:19;;;;;;;15.63;4.97;;;;;;;4.88;100.00;102300.91;5047345;28;20625;-81
2024/02/02 03:27:44;;;;;;;19.40;6.63;;;;;;;4.60;100.00;102307.63;5042521;28;20998;-81
2024/02/02 03:30:10;;;;;;;23.50;7.47;;;;;;;3.12;100.00;102050.38;5026241;28;20176;-81
2024/02/02 03:32:35;;;;;;;24.87;6.87;;;;;;;4.06;100.00;102232.22;5041698;28;20184;-81
2024/02/02 03:35:01;;;;;;;25.90;6.03;;;;;;;4.72;100.00;102367.78;5044513;28;20203;-81
2024/02/02 03:37:26;;;;;;;19.03;6.00;;;;;;;2.88;100.00;102058.47;5038801;28;20684;-81
2024/02/02 03:39:52;;;;;;;17.77;6.10;;;;;;;4.65;100.00;102360.41;5044195;28;20179;-81
2024/02/02 03:42:18;;;;;;;25.47;6.80;;;;;;;2.88;100.00;102110.63;5024283;28;20304;-81
2024/02/02 03:44:43;;;;;;;18.77;6.17;;;;;;;3.77;100.00;102229.22;5027391;28;20191;-81
2024/02/02 03:47:09;;;;;;;18.67;6.47;;;;;;;4.00;100.00;102253.97;5028048;28;20271;-81
2024/02/02 03:49:34;;;;;;;20.63;6.47;;;;;;;4.80;100.00;102353.00;5025309;28;20194;-81
2024/02/02 03:52:00;;;;;;;20.57;6.40;;;;;;;5.42;100.00;102485.38;5033019;28;20213;-81
2024/02/02 03:54:26;;;;;;;18.60;6.90;;;;;;;3.20;100.00;102214.19;5027759;28;20180;-82
2024/02/02 03:56:52;;;;;;;26.20;6.73;;;;;;;3.73;100.00;102309.19;5027402;28;20494;-81
2024/02/02 03:59:17;;;;;;;28.07;6.50;;;;;;;4.36;100.00;102476.94;5030808;28;20468;-81
2024/02/02 04:01:43;;;;;;;20.03;6.33;;;;;;;2.10;100.00;102022.03;5030010;28;20175;-82
2024/02/02 04:04:08;;;;;;;20.43;6.93;;;;;;;2.13;100.00;102081.84;5029471;28;20195;-81
2024/02/02 04:06:34;;;;;;;19.70;6.07;;;;;;;5.64;100.00;102679.69;5044031;28;20282;-81
2024/02/02 04:09:03;;;;;;;21.40;6.50;;;;;;;3.60;100.00;102404.81;5030618;28;20283;-81
2024/02/02 04:11:29;;;;;;;26.07;7.93;;;;;;;5.75;100.00;102757.84;5032725;28;20210;-81
2024/02/02 04:13:55;;;;;;;30.43;7.70;;;;;;;3.53;100.00;102372.59;5032540;28;20446;-81
2024/02/02 04:16:20;;;;;;;22.40;6.90;;;;;;;2.24;100.00;102156.84;5029448;28;20647;-81
2024/02/02 04:18:46;;;;;;;23.87;6.80;;;;;;;4.47;100.00;102562.84;5032256;28;20286;-81
2024/02/02 04:21:11;;;;;;;20.80;6.57;;;;;;;3.53;100.00;102392.94;5035109;28;20192;-81
2024/02/02 04:23:36;;;;;;;24.10;8.40;;;;;;;2.47;100.00;102297.34;5034599;28;20454;-81
2024/02/02 04:26:02;;;;;;;20.17;6.90;;;;;;;5.01;100.00;102722.78;5028771;28;20595;-81
2024/02/02 04:28:28;;;;;;;28.80;7.37;;;;;;;3.74;100.00;102452.41;5031186;28;20208;-81
2024/02/02 04:30:53;;;;;;;27.63;7.53;;;;;;;4.51;100.00;102664.44;5030374;28;20222;-82
2024/02/02 04:33:19;;;;;;;23.70;8.40;;;;;;;2.27;100.00;102282.88;5028706;28;20188;-81
2024/02/02 04:35:44;;;;;;;27.70;8.07;;;;;;;3.54;100.00;102453.03;5029494;28;20180;-81
2024/02/02 04:38:10;;;;;;;23.60;7.13;;;;;;;3.10;100.00;102425.31;5047872;28;20572;-81
2024/02/02 04:40:35;;;;;;;24.27;7.23;;;;;;;3.27;100.00;102397.53;5034152;28;20238;-81
2024/02/02 04:43:01;;;;;;;28.60;8.53;;;;;;;3.85;100.00;102540.03;5048729;28;20198;-81
2024/02/02 04:45:26;;;;;;;28.30;7.90;;;;;;;2.94;100.00;102378.69;5048145;28;21030;-81
2024/02/02 04:47:51;;;;;;;21.50;6.90;;;;;;;3.65;100.00;102425.72;5033776;28;20216;-81
2024/02/02 04:50:17;;;;;;;27.47;8.43;;;;;;;4.60;100.00;102559.25;5033755;28;20195;-81
2024/02/02 04:52:42;;;;;;;25.10;7.60;;;;;;;4.56;100.00;102509.97;5034860;28;20341;-81
2024/02/02 04:55:10;;;;;;;21.77;7.23;;;;;;;2.82;100.00;102236.47;5037657;28;20192;-81
2024/02/02 04:57:35;;;;;;;19.77;7.07;;;;;;;4.64;100.00;102547.44;5046954;28;20682;-81
2024/02/02 05:00:00;;;;;;;24.60;7.50;;;;;;;2.53;100.00;102094.75;5030351;28;20437;-81
2024/02/02 05:02:26;;;;;;;27.03;7.07;;;;;;;4.72;100.00;102508.66;5043273;28;20235;-81
2024/02/02 05:04:52;;;;;;;20.47;7.00;;;;;;;4.57;100.00;102509.00;5047351;28;20188;-81
2024/02/02 05:07:17;;;;;;;23.00;7.10;;;;;;;2.79;100.00;102166.97;5044870;28;20226;-82
2024/02/02 05:09:42;;;;;;;24.60;7.70;;;;;;;4.40;100.00;102444.72;5031979;28;20184;-81
2024/02/02 05:12:08;;;;;;;20.50;7.30;;;;;;;3.77;100.00;102260.22;5030482;28;20184;-81
2024/02/02 05:14:34;;;;;;;22.23;7.33;;;;;;;4.57;100.00;102397.38;5047181;28;20180;-78
2024/02/02 05:16:59;;;;;;;35.00;7.13;;;;;;;3.49;100.00;102225.22;5026638;28;20185;-79
2024/02/02 05:19:25;;;;;;;26.27;7.10;;;;;;;5.56;100.00;102594.25;5041944;28;20194;-79
2024/02/02 05:21:50;;;;;;;21.33;6.93;;;;;;;6.01;100.00;102542.72;5030167;28;20191;-78
2024/02/02 05:24:16;;;;;;;18.17;6.33;;;;;;;3.23;100.00;102107.06;5032419;28;20216;-79
2024/02/02 05:26:41;;;;;;;20.93;6.33;;;;;;;4.59;100.00;102287.31;5048540;28;20203;-79
2024/02/02 05:29:07;;;;;;;19.43;6.97;;;;;;;3.29;100.00;102035.81;5030944;28;20303;-79
2024/02/02 05:31:32;;;;;;;25.07;6.80;;;;;;;3.26;100.00;102081.13;5044465;28;20741;-81
2024/02/02 05:33:58;;;;;;;24.93;6.60;;;;;;;4.48;100.00;102221.78;5034369;28;20242;-81
2024/02/02 05:36:23;;;;;;;23.23;6.07;;;;;;;4.63;100.00;102203.75;5035450;28;20184;-81
2024/02/02 05:38:48;;;;;;;22.87;6.37;;;;;;;2.30;100.00;101776.97;5033280;28;21067;-81
2024/02/02 05:41:14;;;;;;;31.43;7.30;;;;;;;5.09;100.00;102226.50;5036997;28;20183;-81
2024/02/02 05:43:39;;;;;;;19.10;5.87;;;;;;;3.33;100.00;101915.28;5032004;28;25147;-81
2024/02/02 05:46:05;;;;;;;23.93;7.10;;;;;;;2.79;100.00;101762.41;5047776;28;20592;-81
2024/02/02 05:48:30;;;;;;;30.77;6.50;;;;;;;4.80;100.00;102095.16;5033395;28;20804;-81
2024/02/02 05:50:56;;;;;;;22.77;6.70;;;;;;;4.21;100.00;101980.50;5032305;28;20192;-81
2024/02/02 05:53:21;;;;;;;21.03;5.10;;;;;;;2.55;100.00;101695.56;5025382;28;20200;-81
2024/02/02 05:55:47;;;;;;;22.50;6.73;;;;;;;4.74;100.00;101993.72;5028912;28;20225;-81
2024/02/02 05:58:12;;;;;;;22.17;6.50;;;;;;;2.25;100.00;101525.81;5032536;28;20212;-81
2024/02/02 06:00:38;;;;;;;21.10;6.07;;;;;;;3.31;100.00;101686.50;5030540;28;20257;-81
2024/02/02 06:03:03;;;;;;;22.43;6.27;;;;;;;2.95;100.00;101576.47;5046873;28;20179;-82
2024/02/02 06:05:32;;;;;;;22.23;7.50;;;;;;;4.89;100.00;101918.88;5046363;28;20188;-81
2024/02/02 06:08:06;;;;;;;21.00;6.73;;;;;;;4.15;100.00;101727.94;5030594;28;20303;-81
2024/02/02 06:10:32;;;;;;;22.80;6.00;;;;;;;4.44;100.00;101728.84;5026983;28;20449;-81
2024/02/02 06:12:58;;;;;;;18.77;5.10;;;;;;;5.03;100.00;101736.84;5028673;28;20474;-81
2024/02/02 06:15:23;;;;;;;22.07;5.30;;;;;;;4.95;100.00;101713.66;5045222;28;20809;-82
2024/02/02 06:17:50;;;;;;;25.37;5.33;;;;;;;2.89;100.00;101296.97;5047040;28;20445;-81
2024/02/02 06:20:16;;;;;;;21.73;6.00;;;;;;;5.03;100.00;101681.84;5029457;28;20188;-81
2024/02/02 06:22:41;;;;;;;19.23;5.23;;;;;;;2.90;100.00;101301.28;5049899;28;20464;-81
2024/02/02 06:25:07;;;;;;;23.67;5.77;;;;;;;5.07;100.00;101674.44;5033625;28;20187;-81
2024/02/02 06:27:32;;;;;;;30.60;5.87;;;;;;;3.98;100.00;101435.59;5028953;28;20286;-81
2024/02/02 06:29:59;;;;;;;29.90;5.20;;;;;;;3.91;100.00;101428.34;5043942;28;20392;-82
2024/02/02 06:32:25;;;;;;;24.87;5.27;;;;;;;3.90;100.00;101360.31;5031839;28;20191;-81
2024/02/02 06:34:55;;;;;;;18.73;5.13;;;;;;;2.89;100.00;101187.50;5049884;28;20438;-81
2024/02/02 06:37:23;;;;;;;25.03;5.50;;;;;;;3.37;100.00;101285.53;5051219;28;20226;-82
2024/02/02 06:39:51;;;;;;;28.37;6.07;;;;;;;4.44;100.00;101446.41;5049786;28;20427;-81
2024/02/02 06:42:20;;;;;;;24.83;5.73;;;;;;;3.58;100.00;101219.06;5033568;28;20545;-81
2024/02/02 06:44:46;;;;;;;26.47;5.87;;;;;;;5.14;100.00;101460.97;5051467;28;20437;-81
2024/02/02 06:47:11;;;;;;;28.17;5.63;;;;;;;5.07;100.00;101441.28;5030915;28;20470;-82
2024/02/02 06:49:37;;;;;;;21.10;5.17;;;;;;;3.84;100.00;101247.59;5033553;28;20269;-81
2024/02/02 06:52:03;;;;;;;24.13;5.40;;;;;;;4.50;100.00;101352.88;5033875;28;20186;-82
2024/02/02 06:54:29;;;;;;;22.00;5.50;;;;;;;5.11;100.00;101445.31;5034368;28;20192;-81
2024/02/02 06:56:54;;;;;;;27.33;5.70;;;;;;;2.78;100.00;101018.94;5041700;28;20536;-81
2024/02/02 06:59:22;;;;;;;25.70;5.77;;;;;;;4.19;100.00;101246.91;5032357;28;20886;-81
2024/02/02 07:01:48;;;;;;;25.70;4.43;;;;;;;3.69;100.00;101188.88;5032303;28;20184;-81
2024/02/02 07:04:17;;;;;;;32.20;6.40;;;;;;;2.92;100.00;101090.03;5046444;28;20472;-82
2024/02/02 07:06:45;;;;;;;20.97;4.20;;;;;;;4.98;100.00;101373.88;5051526;28;20244;-81
2024/02/02 07:09:20;;;;;;;21.23;4.23;;;;;;;6.37;100.00;101546.59;5035100;28;20978;-81
2024/02/02 07:11:59;;;;;;;24.93;4.43;;;;;;;6.40;100.00;101525.81;5046987;28;20437;-81
2024/02/02 07:14:49;;;;;;;27.60;5.00;;;;;;;6.41;100.00;101513.31;5035399;28;20429;-81
2024/02/02 07:17:36;;;;;;;28.53;5.23;;;;;;;4.08;100.00;101140.94;5028810;28;23525;-81
2024/02/02 07:20:08;;;;;;;19.57;4.17;;;;;;;5.00;100.00;101256.72;5049148;28;20473;-81
2024/02/02 07:22:40;;;;;;;23.20;5.43;;;;;;;6.00;100.00;101380.66;5031279;28;20445;-81
2024/02/02 07:25:15;;;;;;;26.00;6.80;;;;;;;4.80;100.00;101160.38;5032635;28;20714;-81
2024/02/02 07:28:06;;;;;;;19.87;4.97;;;;;;;6.42;100.00;101425.25;5026113;28;20593;-81
2024/02/02 07:30:43;;;;;;;28.17;5.73;;;;;;;6.42;100.00;101427.91;5033567;28;20488;-81
2024/02/02 07:33:22;;;;;;;18.30;4.43;;;;;;;6.39;100.00;101441.50;5030983;28;20861;-81
2024/02/02 07:35:47;;;;;;;22.20;4.60;;;;;;;4.98;100.00;101250.75;5042723;28;20429;-81
2024/02/02 07:38:30;;;;;;;21.40;4.60;;;;;;;6.43;100.00;101421.56;5033649;28;20976;-81
2024/02/02 07:41:04;;;;;;;26.23;4.80;;;;;;;4.85;100.00;101226.38;5042592;28;20187;-81
2024/02/02 07:43:32;;;;;;;31.23;5.53;;;;;;;3.66;100.00;101034.47;5045842;28;20473;-81
2024/02/02 07:46:02;;;;;;;23.80;4.80;;;;;;;4.22;100.00;101055.47;5029101;28;20553;-81
2024/02/02 07:48:27;;;;;;;29.83;5.37;;;;;;;4.66;100.00;101124.56;5048269;28;20569;-81
2024/02/02 07:50:53;;;;;;;23.50;4.60;;;;;;;4.32;100.00;101076.59;5028962;28;20895;-82
2024/02/02 07:53:18;;;;;;;33.33;6.40;;;;;;;5.53;100.00;101295.78;5045661;28;20196;-82
2024/02/02 07:55:44;;;;;;;23.33;4.60;;;;;;;3.42;100.00;100952.81;5024766;28;20191;-81
2024/02/02 07:58:09;;;;;;;27.03;5.23;;;;;;;4.06;100.00;101063.25;5020565;28;20246;-82
2024/02/02 08:00:35;;;;;;;20.80;5.17;;;;;;;4.18;100.00;101101.84;5044906;28;20264;-81
2024/02/02 08:03:00;;;;;;;26.60;4.73;;;;;;;4.27;100.00;101129.31;5045721;28;20206;-81
2024/02/02 08:05:28;;;;;;;27.93;5.00;;;;;;;5.04;100.00;101175.69;5042197;28;20188;-81
2024/02/02 08:07:53;;;;;;;27.23;5.13;;;;;;;5.05;100.00;101230.53;5038887;28;20294;-82
2024/02/02 08:10:19;;;;;;;22.57;5.27;;;;;;;5.38;100.00;101268.88;5044626;28;20461;-81
2024/02/02 08:12:44;;;;;;;29.67;4.83;;;;;;;4.48;100.00;101129.03;5044022;28;20199;-81
2024/02/02 08:15:10;;;;;;;19.27;4.30;;;;;;;4.91;100.00;101213.28;5028013;28;20184;-81
2024/02/02 08:17:35;;;;;;;25.80;4.80;;;;;;;4.31;100.00;101122.75;5040161;28;20277;-82
2024/02/02 08:20:02;;;;;;;28.17;5.97;;;;;;;4.26;100.00;101090.50;5029822;28;20475;-81
2024/02/02 08:22:27;;;;;;;23.73;4.60;;;;;;;2.86;100.00;100868.03;5043828;28;20522;-81
2024/02/02 08:24:53;;;;;;;26.30;4.80;;;;;;;4.21;100.00;101079.50;5045559;28;20184;-82
2024/02/02 08:27:19;;;;;;;25.90;4.90;;;;;;;4.95;100.00;101169.47;5044961;28;20242;-82
2024/02/02 08:29:46;;;;;;;21.37;4.93;;;;;;;5.12;100.00;101183.75;5044098;28;20218;-80
2024/02/02 08:32:12;;;;;;;24.17;5.23;;;;;;;4.68;100.00;101177.53;5030684;28;20569;-81
2024/02/02 08:34:37;;;;;;;19.73;4.93;;;;;;;2.62;100.00;100802.38;5040397;28;20437;-81
2024/02/02 08:37:04;;;;;;;23.83;5.20;;;;;;;4.20;100.00;101112.34;5046125;28;20445;-82
2024/02/02 08:39:33;;;;;;;29.43;4.80;;;;;;;3.65;100.00;100963.84;5031657;28;20188;-82
2024/02/02 08:44:43;;;;;;;16.07;4.07;;;;;;;4.07;100.00;101043.66;5079422;28;20480;-73
2024/02/02 08:47:08;;;;;;;19.87;5.50;;;;;;;6.21;100.00;101355.50;5079138;28;20493;-72
2024/02/02 08:49:55;;;;;;;24.27;4.67;;;;;;;6.41;100.00;101412.88;5077665;28;20213;-72
2024/02/02 08:52:43;;;;;;;20.47;5.17;;;;;;;5.78;100.00;101274.63;5080159;28;20429;-72
2024/02/02 08:55:56;;;;;;;27.77;5.53;;;;;;;6.45;100.00;101390.28;5083819;28;21040;-72
2024/02/02 08:58:30;;;;;;;26.70;4.90;;;;;;;6.40;100.00;101379.25;5070006;28;21040;-73
2024/02/02 09:00:56;;;;;;;19.60;4.27;;;;;;;6.27;100.00;101374.34;5082660;28;20969;-72
2024/02/02 09:03:26;;;;;;;23.53;4.53;;;;;;;6.53;100.00;101392.13;5077662;28;20468;-72
2024/02/02 09:05:53;;;;;;;26.97;4.80;;;;;;;6.42;100.00;101401.25;5072587;28;20316;-72
2024/02/02 09:08:33;;;;;;;28.90;6.10;;;;;;;6.57;100.00;101398.84;5079739;28;20500;-73
2024/02/02 09:10:58;;;;;;;25.10;5.90;;;;;;;6.66;100.00;101407.72;5078274;28;20424;-72
2024/02/02 09:13:33;;;;;;;22.40;5.40;;;;;;;5.87;100.00;101318.94;5079925;28;20432;-72
2024/02/02 09:15:58;;;;;;;28.33;5.17;;;;;;;6.60;100.00;101413.69;5077930;28;20183;-73
2024/02/02 09:18:54;;;;;;;24.43;6.43;;;;;;;6.66;100.00;101415.69;5084042;28;20539;-73
2024/02/02 09:21:27;;;;;;;17.50;4.40;;;;;;;6.03;100.00;101358.22;5082777;28;20190;-72
2024/02/02 09:23:52;;;;;;;19.80;4.93;;;;;;;6.36;100.00;101406.34;5082838;28;20814;-72
2024/02/02 09:26:36;;;;;;;22.80;4.77;;;;;;;6.26;100.00;101390.50;5088579;28;20436;-72
2024/02/02 09:29:01;;;;;;;25.57;5.50;;;;;;;6.62;100.00;101427.66;5099795;27;20202;-72
2024/02/02 09:31:30;;;;;;;20.50;5.90;;;;;;;6.61;100.00;101413.50;5079641;28;20440;-73
2024/02/02 09:33:56;;;;;;;24.33;5.07;;;;;;;6.78;100.00;101449.91;5080132;28;20544;-73
2024/02/02 09:36:26;;;;;;;24.97;4.90;;;;;;;6.74;100.00;101467.25;5082864;28;20448;-73
2024/02/02 09:39:17;;;;;;;22.77;5.20;;;;;;;5.99;100.00;101332.88;5081777;28;20456;-73
2024/02/02 09:42:15;;;;;;;27.43;5.83;;;;;;;6.87;100.00;101455.28;5063666;28;20483;-72
2024/02/02 09:44:50;;;;;;;25.30;7.40;;;;;;;6.77;100.00;101474.91;5074361;28;20459;-72
2024/02/02 09:47:18;;;;;;;24.33;5.57;;;;;;;6.84;100.00;101491.09;5081950;28;20455;-72
2024/02/02 09:49:47;;;;;;;24.20;5.33;;;;;;;6.85;100.00;101470.59;5087057;28;20432;-72
2024/02/02 09:52:18;;;;;;;22.53;5.40;;;;;;;6.90;100.00;101485.13;5084239;28;20531;-73
2024/02/02 09:54:52;;;;;;;24.97;6.00;;;;;;;6.89;100.00;101463.97;5082426;28;20436;-72
2024/02/02 09:57:25;;;;;;;20.47;5.00;;;;;;;6.25;100.00;101379.00;5087436;28;20447;-72
2024/02/02 10:00:08;;;;;;;26.00;5.13;;;;;;;6.54;100.00;101434.63;5080029;28;20475;-73
2024/02/02 10:02:36;;;;;;;32.20;5.57;;;;;;;6.96;100.00;101492.50;5084544;28;20443;-72
2024/02/02 10:05:13;;;;;;;24.13;5.83;;;;;;;6.96;100.00;101502.34;5081128;28;20436;-72
2024/02/02 10:07:46;;;;;;;28.70;5.80;;;;;;;6.95;100.00;101514.84;5078489;28;20467;-72
2024/02/02 10:10:13;;;;;;;27.57;5.53;;;;;;;6.98;100.00;101522.53;5081518;28;20449;-72
2024/02/02 10:12:59;;;;;;;21.80;5.47;;;;;;;7.02;100.00;101515.88;5086718;28;20819;-72
2024/02/02 10:15:43;;;;;;;22.97;5.43;;;;;;;7.02;100.00;101520.38;5084521;28;20424;-72
2024/02/02 10:18:09;;;;;;;20.47;5.00;;;;;;;7.04;100.00;101521.06;5082275;28;20944;-72
2024/02/02 10:20:59;;;;;;;24.47;4.70;;;;;;;7.03;100.00;101522.06;5081964;28;20436;-73
2024/02/02 10:23:49;;;;;;;23.23;5.47;;;;;;;7.06;100.00;101542.22;5085319;28;20186;-72
2024/02/02 10:26:24;;;;;;;21.07;5.43;;;;;;;7.10;100.00;101532.91;5090199;28;20428;-73
2024/02/02 10:29:06;;;;;;;36.10;5.90;;;;;;;7.00;100.00;101512.53;5081133;28;20502;-73
2024/02/02 10:31:46;;;;;;;25.20;5.50;;;;;;;7.18;100.00;101524.97;5082066;28;20449;-72
2024/02/02 10:34:44;;;;;;;24.70;4.57;;;;;;;7.24;100.00;101527.00;5081160;28;20442;-72
2024/02/02 10:37:35;;;;;;;26.17;5.13;;;;;;;6.29;100.00;101388.34;5078037;28;20433;-72
2024/02/02 10:40:10;;;;;;;27.97;5.30;;;;;;;7.29;100.00;101511.34;5076870;28;20457;-73
2024/02/02 10:43:02;;;;;;;28.30;5.10;;;;;;;7.02;100.00;101453.69;5081243;28;20439;-73
2024/02/02 10:45:36;;;;;;;21.77;5.53;;;;;;;6.56;100.00;101381.16;5077894;28;21056;-73
2024/02/02 10:48:40;;;;;;;26.00;5.23;;;;;;;7.35;100.00;101478.66;5080957;28;20813;-72
2024/02/02 10:51:20;;;;;;;22.60;5.50;;;;;;;7.40;100.00;101468.31;5080828;28;20432;-72
2024/02/02 10:53:51;;;;;;;23.03;5.07;;;;;;;7.42;100.00;101470.84;5082075;28;20447;-73
2024/02/02 10:56:43;;;;;;;23.17;5.80;;;;;;;7.43;100.00;101470.69;5083899;28;20428;-72
2024/02/02 10:59:24;;;;;;;19.80;4.93;;;;;;;7.39;100.00;101464.00;5082896;28;20457;-72
2024/02/02 11:02:26;;;;;;;22.53;4.80;;;;;;;7.48;100.00;101455.00;5081717;28;20944;-73
2024/02/02 11:05:00;;;;;;;22.87;5.40;;;;;;;7.38;100.00;101435.66;5081571;28;20844;-73
2024/02/02 11:07:34;;;;;;;15.33;5.00;;;;;;;6.87;100.00;101359.28;5073736;28;20468;-73
2024/02/02 11:10:05;;;;;;;24.87;6.67;;;;;;;7.58;100.00;101433.50;5083000;28;20946;-72
2024/02/02 11:12:57;;;;;;;27.63;5.13;;;;;;;7.08;100.00;101337.50;5080547;28;20428;-72
2024/02/02 11:15:40;;;;;;;33.10;6.60;;;;;;;7.69;100.00;101424.31;5078987;28;20455;-72
2024/02/02 11:18:41;;;;;;;20.60;4.83;;;;;;;7.68;100.00;101412.81;5075869;28;20444;-73
2024/02/02 11:21:38;;;;;;;16.90;4.40;;;;;;;7.31;100.00;101332.38;5079467;28;20439;-73
2024/02/02 11:24:21;;;;;;;24.70;4.70;;;;;;;7.16;100.00;101310.84;5075359;28;21026;-72
2024/02/02 11:27:04;;;;;;;28.70;6.50;;;;;;;7.82;100.00;101383.78;5072974;28;25216;-73
2024/02/02 11:29:39;;;;;;;19.70;5.03;;;;;;;7.83;100.00;101366.75;5084408;28;21018;-72